sensor_id;sensor_type;location;lat;lon;timestamp;P1;durP1;ratioP1;P2;durP2;ratioP2
54259;SDS011;40172;53.022;7.012;2022-07-29T00:01:51;5.50;;;2.05;;
54259;SDS011;40172;53.022;7.012;2022-07-29T00:04:17;5.65;;;2.28;;
54259;SDS011;40172;53.022;7.012;2022-07-29T00:06:44;5.40;;;2.30;;
54259;SDS011;40172;53.022;7.012;2022-07-29T00:09:10;4.80;;;2.20;;
54259;SDS011;40172;53.022;7.012;2022-07-29T00:11:35;5.05;;;2.22;;
54259;SDS011;40172;53.022;7.012;2022-07-29T00:14:01;5.72;;;2.10;;
54259;SDS011;40172;53.022;7.012;2022-07-29T00:16:27;3.83;;;2.13;;
54259;SDS011;40172;53.022;7.012;2022-07-29T00:18:52;4.32;;;2.20;;
54259;SDS011;40172;53.022;7.012;2022-07-29T00:21:18;3.85;;;2.22;;
54259;SDS011;40172;53.022;7.012;2022-07-29T00:23:44;6.30;;;2.58;;
54259;SDS011;40172;53.022;7.012;2022-07-29T00:26:09;5.53;;;2.40;;
54259;SDS011;40172;53.022;7.012;2022-07-29T00:28:35;3.22;;;2.08;;
54259;SDS011;40172;53.022;7.012;2022-07-29T00:31:01;3.85;;;2.45;;
54259;SDS011;40172;53.022;7.012;2022-07-29T00:33:26;6.72;;;2.55;;
54259;SDS011;40172;53.022;7.012;2022-07-29T00:35:53;3.83;;;2.50;;
54259;SDS011;40172;53.022;7.012;2022-07-29T00:38:19;4.53;;;2.80;;
54259;SDS011;40172;53.022;7.012;2022-07-29T00:40:45;4.93;;;2.47;;
54259;SDS011;40172;53.022;7.012;2022-07-29T00:43:11;5.80;;;2.20;;
54259;SDS011;40172;53.022;7.012;2022-07-29T00:45:38;4.68;;;2.60;;
54259;SDS011;40172;53.022;7.012;2022-07-29T00:48:05;4.88;;;2.40;;
54259;SDS011;40172;53.022;7.012;2022-07-29T00:50:31;4.78;;;2.75;;
54259;SDS011;40172;53.022;7.012;2022-07-29T00:52:58;5.40;;;2.67;;
54259;SDS011;40172;53.022;7.012;2022-07-29T00:55:24;4.30;;;2.20;;
54259;SDS011;40172;53.022;7.012;2022-07-29T00:57:50;8.82;;;2.70;;
54259;SDS011;40172;53.022;7.012;2022-07-29T01:00:18;3.90;;;2.30;;
54259;SDS011;40172;53.022;7.012;2022-07-29T01:02:47;5.90;;;2.67;;
54259;SDS011;40172;53.022;7.012;2022-07-29T01:05:13;5.40;;;2.50;;
54259;SDS011;40172;53.022;7.012;2022-07-29T01:07:40;3.60;;;2.42;;
54259;SDS011;40172;53.022;7.012;2022-07-29T01:10:06;5.03;;;2.60;;
54259;SDS011;40172;53.022;7.012;2022-07-29T01:12:35;4.55;;;2.30;;
54259;SDS011;40172;53.022;7.012;2022-07-29T01:15:03;4.63;;;2.20;;
54259;SDS011;40172;53.022;7.012;2022-07-29T01:17:41;4.82;;;2.58;;
54259;SDS011;40172;53.022;7.012;2022-07-29T01:29:05;4.57;;;2.13;;
54259;SDS011;40172;53.022;7.012;2022-07-29T01:31:58;3.60;;;2.40;;
54259;SDS011;40172;53.022;7.012;2022-07-29T01:37:20;8.70;;;2.40;;
54259;SDS011;40172;53.022;7.012;2022-07-29T01:39:51;6.35;;;2.13;;
54259;SDS011;40172;53.022;7.012;2022-07-29T01:42:23;4.85;;;2.10;;
54259;SDS011;40172;53.022;7.012;2022-07-29T01:45:20;4.47;;;2.00;;
54259;SDS011;40172;53.022;7.012;2022-07-29T01:47:54;3.80;;;2.30;;
54259;SDS011;40172;53.022;7.012;2022-07-29T01:50:43;5.05;;;1.85;;
54259;SDS011;40172;53.022;7.012;2022-07-29T01:53:13;9.87;;;2.00;;
54259;SDS011;40172;53.022;7.012;2022-07-29T01:58:13;5.07;;;2.25;;
54259;SDS011;40172;53.022;7.012;2022-07-29T02:00:42;3.67;;;2.10;;
54259;SDS011;40172;53.022;7.012;2022-07-29T02:03:11;5.40;;;1.95;;
54259;SDS011;40172;53.022;7.012;2022-07-29T02:05:39;2.78;;;1.80;;
54259;SDS011;40172;53.022;7.012;2022-07-29T02:08:07;3.30;;;1.70;;
54259;SDS011;40172;53.022;7.012;2022-07-29T02:10:35;5.15;;;2.00;;
54259;SDS011;40172;53.022;7.012;2022-07-29T02:13:03;6.45;;;2.40;;
54259;SDS011;40172;53.022;7.012;2022-07-29T02:15:32;6.07;;;2.00;;
54259;SDS011;40172;53.022;7.012;2022-07-29T02:18:07;5.72;;;2.33;;
54259;SDS011;40172;53.022;7.012;2022-07-29T02:20:34;5.00;;;1.90;;
54259;SDS011;40172;53.022;7.012;2022-07-29T02:23:02;4.68;;;1.90;;
54259;SDS011;40172;53.022;7.012;2022-07-29T02:25:29;6.68;;;2.03;;
54259;SDS011;40172;53.022;7.012;2022-07-29T02:27:55;6.43;;;2.03;;
54259;SDS011;40172;53.022;7.012;2022-07-29T02:30:23;3.90;;;1.98;;
54259;SDS011;40172;53.022;7.012;2022-07-29T02:32:50;5.30;;;2.00;;
54259;SDS011;40172;53.022;7.012;2022-07-29T02:35:18;4.65;;;1.90;;
54259;SDS011;40172;53.022;7.012;2022-07-29T02:37:47;6.55;;;2.15;;
54259;SDS011;40172;53.022;7.012;2022-07-29T02:40:34;5.75;;;1.98;;
54259;SDS011;40172;53.022;7.012;2022-07-29T02:43:02;4.68;;;1.73;;
54259;SDS011;40172;53.022;7.012;2022-07-29T02:45:30;4.78;;;2.65;;
54259;SDS011;40172;53.022;7.012;2022-07-29T02:47:57;4.03;;;2.00;;
54259;SDS011;40172;53.022;7.012;2022-07-29T02:50:29;4.18;;;1.80;;
54259;SDS011;40172;53.022;7.012;2022-07-29T02:53:05;4.97;;;1.73;;
54259;SDS011;40172;53.022;7.012;2022-07-29T02:55:43;4.38;;;2.22;;
54259;SDS011;40172;53.022;7.012;2022-07-29T03:01:13;5.18;;;1.80;;
54259;SDS011;40172;53.022;7.012;2022-07-29T03:03:42;6.43;;;2.08;;
54259;SDS011;40172;53.022;7.012;2022-07-29T03:06:11;4.88;;;1.98;;
54259;SDS011;40172;53.022;7.012;2022-07-29T03:08:39;4.88;;;1.98;;
54259;SDS011;40172;53.022;7.012;2022-07-29T03:11:05;6.47;;;2.13;;
54259;SDS011;40172;53.022;7.012;2022-07-29T03:13:34;5.55;;;2.00;;
54259;SDS011;40172;53.022;7.012;2022-07-29T03:16:00;4.75;;;1.80;;
54259;SDS011;40172;53.022;7.012;2022-07-29T03:18:27;3.30;;;1.83;;
54259;SDS011;40172;53.022;7.012;2022-07-29T03:20:54;7.47;;;1.90;;
54259;SDS011;40172;53.022;7.012;2022-07-29T03:23:20;3.92;;;1.83;;
54259;SDS011;40172;53.022;7.012;2022-07-29T03:25:51;4.07;;;1.90;;
54259;SDS011;40172;53.022;7.012;2022-07-29T03:28:17;6.43;;;2.20;;
54259;SDS011;40172;53.022;7.012;2022-07-29T03:30:42;4.88;;;1.98;;
54259;SDS011;40172;53.022;7.012;2022-07-29T03:33:08;4.85;;;1.98;;
54259;SDS011;40172;53.022;7.012;2022-07-29T03:35:34;5.35;;;1.80;;
54259;SDS011;40172;53.022;7.012;2022-07-29T03:37:59;4.53;;;1.90;;
54259;SDS011;40172;53.022;7.012;2022-07-29T03:40:32;8.23;;;1.90;;
54259;SDS011;40172;53.022;7.012;2022-07-29T03:43:03;5.97;;;2.13;;
54259;SDS011;40172;53.022;7.012;2022-07-29T03:45:30;3.70;;;1.70;;
54259;SDS011;40172;53.022;7.012;2022-07-29T03:47:59;4.82;;;1.92;;
54259;SDS011;40172;53.022;7.012;2022-07-29T03:50:30;4.75;;;1.95;;
54259;SDS011;40172;53.022;7.012;2022-07-29T03:52:58;6.65;;;1.73;;
54259;SDS011;40172;53.022;7.012;2022-07-29T03:55:24;3.53;;;1.60;;
54259;SDS011;40172;53.022;7.012;2022-07-29T03:57:51;5.97;;;1.83;;
54259;SDS011;40172;53.022;7.012;2022-07-29T04:00:16;5.70;;;1.60;;
54259;SDS011;40172;53.022;7.012;2022-07-29T04:02:43;5.20;;;2.13;;
54259;SDS011;40172;53.022;7.012;2022-07-29T04:05:13;5.82;;;1.88;;
54259;SDS011;40172;53.022;7.012;2022-07-29T04:07:43;3.30;;;1.83;;
54259;SDS011;40172;53.022;7.012;2022-07-29T04:10:09;5.55;;;1.67;;
54259;SDS011;40172;53.022;7.012;2022-07-29T04:12:35;6.22;;;2.20;;
54259;SDS011;40172;53.022;7.012;2022-07-29T04:15:02;5.03;;;1.90;;
54259;SDS011;40172;53.022;7.012;2022-07-29T04:17:30;5.80;;;2.00;;
54259;SDS011;40172;53.022;7.012;2022-07-29T04:19:56;8.07;;;1.98;;
54259;SDS011;40172;53.022;7.012;2022-07-29T04:22:21;5.18;;;1.92;;
54259;SDS011;40172;53.022;7.012;2022-07-29T04:24:47;3.65;;;1.75;;
54259;SDS011;40172;53.022;7.012;2022-07-29T04:27:12;6.68;;;1.98;;
54259;SDS011;40172;53.022;7.012;2022-07-29T04:29:38;7.65;;;2.00;;
54259;SDS011;40172;53.022;7.012;2022-07-29T04:32:04;8.25;;;2.00;;
54259;SDS011;40172;53.022;7.012;2022-07-29T04:34:30;8.50;;;2.10;;
54259;SDS011;40172;53.022;7.012;2022-07-29T04:36:56;6.78;;;2.40;;
54259;SDS011;40172;53.022;7.012;2022-07-29T04:39:21;6.90;;;1.88;;
54259;SDS011;40172;53.022;7.012;2022-07-29T04:41:47;5.93;;;1.70;;
54259;SDS011;40172;53.022;7.012;2022-07-29T04:44:13;6.03;;;2.15;;
54259;SDS011;40172;53.022;7.012;2022-07-29T04:46:38;3.40;;;1.88;;
54259;SDS011;40172;53.022;7.012;2022-07-29T04:49:04;3.55;;;1.75;;
54259;SDS011;40172;53.022;7.012;2022-07-29T04:51:30;5.90;;;2.17;;
54259;SDS011;40172;53.022;7.012;2022-07-29T04:53:56;6.07;;;2.25;;
54259;SDS011;40172;53.022;7.012;2022-07-29T04:56:21;5.47;;;1.90;;
54259;SDS011;40172;53.022;7.012;2022-07-29T04:58:47;4.75;;;1.67;;
54259;SDS011;40172;53.022;7.012;2022-07-29T05:01:12;8.20;;;2.20;;
54259;SDS011;40172;53.022;7.012;2022-07-29T05:03:39;7.05;;;1.90;;
54259;SDS011;40172;53.022;7.012;2022-07-29T05:06:05;7.60;;;2.28;;
54259;SDS011;40172;53.022;7.012;2022-07-29T05:08:30;5.85;;;1.98;;
54259;SDS011;40172;53.022;7.012;2022-07-29T05:10:56;6.47;;;1.83;;
54259;SDS011;40172;53.022;7.012;2022-07-29T05:13:22;5.60;;;1.90;;
54259;SDS011;40172;53.022;7.012;2022-07-29T05:15:47;4.30;;;1.77;;
54259;SDS011;40172;53.022;7.012;2022-07-29T05:18:13;4.55;;;2.00;;
54259;SDS011;40172;53.022;7.012;2022-07-29T05:20:39;12.80;;;1.75;;
54259;SDS011;40172;53.022;7.012;2022-07-29T05:23:04;5.65;;;2.00;;
54259;SDS011;40172;53.022;7.012;2022-07-29T05:25:30;6.28;;;2.13;;
54259;SDS011;40172;53.022;7.012;2022-07-29T05:27:56;4.40;;;2.00;;
54259;SDS011;40172;53.022;7.012;2022-07-29T05:30:22;6.13;;;2.15;;
54259;SDS011;40172;53.022;7.012;2022-07-29T05:32:47;6.13;;;2.15;;
54259;SDS011;40172;53.022;7.012;2022-07-29T05:35:13;7.43;;;2.10;;
54259;SDS011;40172;53.022;7.012;2022-07-29T05:37:39;5.38;;;1.80;;
54259;SDS011;40172;53.022;7.012;2022-07-29T05:40:06;5.00;;;1.75;;
54259;SDS011;40172;53.022;7.012;2022-07-29T05:42:32;4.90;;;2.00;;
54259;SDS011;40172;53.022;7.012;2022-07-29T05:44:58;4.50;;;1.98;;
54259;SDS011;40172;53.022;7.012;2022-07-29T05:47:24;5.25;;;1.90;;
54259;SDS011;40172;53.022;7.012;2022-07-29T05:49:50;6.03;;;2.20;;
54259;SDS011;40172;53.022;7.012;2022-07-29T05:52:16;11.88;;;2.97;;
54259;SDS011;40172;53.022;7.012;2022-07-29T05:54:42;7.65;;;2.10;;
54259;SDS011;40172;53.022;7.012;2022-07-29T05:57:08;8.07;;;2.13;;
54259;SDS011;40172;53.022;7.012;2022-07-29T05:59:40;4.90;;;2.20;;
54259;SDS011;40172;53.022;7.012;2022-07-29T06:02:06;10.27;;;2.33;;
54259;SDS011;40172;53.022;7.012;2022-07-29T06:04:32;3.88;;;1.90;;
54259;SDS011;40172;53.022;7.012;2022-07-29T06:06:58;3.58;;;1.83;;
54259;SDS011;40172;53.022;7.012;2022-07-29T06:09:24;5.88;;;2.15;;
54259;SDS011;40172;53.022;7.012;2022-07-29T06:11:50;4.35;;;2.10;;
54259;SDS011;40172;53.022;7.012;2022-07-29T06:14:17;5.53;;;2.00;;
54259;SDS011;40172;53.022;7.012;2022-07-29T06:16:42;6.25;;;2.10;;
54259;SDS011;40172;53.022;7.012;2022-07-29T06:19:08;4.57;;;2.00;;
54259;SDS011;40172;53.022;7.012;2022-07-29T06:21:34;7.60;;;2.20;;
54259;SDS011;40172;53.022;7.012;2022-07-29T06:23:59;5.75;;;2.20;;
54259;SDS011;40172;53.022;7.012;2022-07-29T06:26:25;4.95;;;2.08;;
54259;SDS011;40172;53.022;7.012;2022-07-29T06:28:50;6.22;;;2.28;;
54259;SDS011;40172;53.022;7.012;2022-07-29T06:31:16;5.35;;;2.38;;
54259;SDS011;40172;53.022;7.012;2022-07-29T06:33:42;7.00;;;2.30;;
54259;SDS011;40172;53.022;7.012;2022-07-29T06:36:07;4.82;;;2.03;;
54259;SDS011;40172;53.022;7.012;2022-07-29T06:38:33;4.78;;;2.00;;
54259;SDS011;40172;53.022;7.012;2022-07-29T06:40:59;8.50;;;2.20;;
54259;SDS011;40172;53.022;7.012;2022-07-29T06:43:29;7.47;;;2.20;;
54259;SDS011;40172;53.022;7.012;2022-07-29T06:46:15;6.90;;;2.38;;
54259;SDS011;40172;53.022;7.012;2022-07-29T06:48:44;4.53;;;2.13;;
54259;SDS011;40172;53.022;7.012;2022-07-29T06:51:10;6.38;;;2.40;;
54259;SDS011;40172;53.022;7.012;2022-07-29T06:53:37;4.22;;;2.30;;
54259;SDS011;40172;53.022;7.012;2022-07-29T06:56:04;6.60;;;2.33;;
54259;SDS011;40172;53.022;7.012;2022-07-29T06:58:31;8.60;;;2.33;;
54259;SDS011;40172;53.022;7.012;2022-07-29T07:00:57;9.55;;;2.03;;
54259;SDS011;40172;53.022;7.012;2022-07-29T07:03:25;5.45;;;1.92;;
54259;SDS011;40172;53.022;7.012;2022-07-29T07:05:51;9.25;;;2.45;;
54259;SDS011;40172;53.022;7.012;2022-07-29T07:08:18;6.10;;;1.98;;
54259;SDS011;40172;53.022;7.012;2022-07-29T07:10:44;5.97;;;2.20;;
54259;SDS011;40172;53.022;7.012;2022-07-29T07:13:10;5.18;;;2.15;;
54259;SDS011;40172;53.022;7.012;2022-07-29T07:15:36;7.90;;;2.25;;
54259;SDS011;40172;53.022;7.012;2022-07-29T07:18:03;6.85;;;2.35;;
54259;SDS011;40172;53.022;7.012;2022-07-29T07:20:30;4.38;;;2.10;;
54259;SDS011;40172;53.022;7.012;2022-07-29T07:22:57;8.25;;;2.05;;
54259;SDS011;40172;53.022;7.012;2022-07-29T07:25:22;4.03;;;2.00;;
54259;SDS011;40172;53.022;7.012;2022-07-29T07:27:48;8.80;;;2.72;;
54259;SDS011;40172;53.022;7.012;2022-07-29T07:30:14;6.82;;;2.30;;
54259;SDS011;40172;53.022;7.012;2022-07-29T07:32:39;6.13;;;2.10;;
54259;SDS011;40172;53.022;7.012;2022-07-29T07:35:06;8.10;;;2.40;;
54259;SDS011;40172;53.022;7.012;2022-07-29T07:37:33;7.07;;;1.92;;
54259;SDS011;40172;53.022;7.012;2022-07-29T07:39:59;4.50;;;2.47;;
54259;SDS011;40172;53.022;7.012;2022-07-29T07:42:25;8.07;;;2.28;;
54259;SDS011;40172;53.022;7.012;2022-07-29T07:44:51;7.63;;;2.15;;
54259;SDS011;40172;53.022;7.012;2022-07-29T07:47:17;7.47;;;2.00;;
54259;SDS011;40172;53.022;7.012;2022-07-29T07:49:47;7.13;;;1.83;;
54259;SDS011;40172;53.022;7.012;2022-07-29T07:52:14;7.78;;;1.95;;
54259;SDS011;40172;53.022;7.012;2022-07-29T07:54:41;7.13;;;2.20;;
54259;SDS011;40172;53.022;7.012;2022-07-29T07:57:09;5.50;;;2.00;;
54259;SDS011;40172;53.022;7.012;2022-07-29T07:59:34;7.13;;;2.30;;
54259;SDS011;40172;53.022;7.012;2022-07-29T08:02:00;5.45;;;1.90;;
54259;SDS011;40172;53.022;7.012;2022-07-29T08:04:26;5.53;;;2.20;;
54259;SDS011;40172;53.022;7.012;2022-07-29T08:06:52;4.60;;;2.33;;
54259;SDS011;40172;53.022;7.012;2022-07-29T08:09:19;7.85;;;2.30;;
54259;SDS011;40172;53.022;7.012;2022-07-29T08:11:45;8.15;;;2.40;;
54259;SDS011;40172;53.022;7.012;2022-07-29T08:14:11;8.75;;;1.90;;
54259;SDS011;40172;53.022;7.012;2022-07-29T08:16:38;6.55;;;2.20;;
54259;SDS011;40172;53.022;7.012;2022-07-29T08:19:05;5.90;;;2.28;;
54259;SDS011;40172;53.022;7.012;2022-07-29T08:21:30;7.78;;;2.70;;
54259;SDS011;40172;53.022;7.012;2022-07-29T08:23:56;6.03;;;2.20;;
54259;SDS011;40172;53.022;7.012;2022-07-29T08:26:41;7.20;;;2.50;;
54259;SDS011;40172;53.022;7.012;2022-07-29T08:29:07;6.07;;;2.15;;
54259;SDS011;40172;53.022;7.012;2022-07-29T08:31:33;5.90;;;2.20;;
54259;SDS011;40172;53.022;7.012;2022-07-29T08:33:58;5.20;;;2.20;;
54259;SDS011;40172;53.022;7.012;2022-07-29T08:36:25;10.73;;;2.70;;
54259;SDS011;40172;53.022;7.012;2022-07-29T08:38:51;5.22;;;2.20;;
54259;SDS011;40172;53.022;7.012;2022-07-29T08:41:17;6.38;;;2.40;;
54259;SDS011;40172;53.022;7.012;2022-07-29T08:43:44;8.65;;;2.40;;
54259;SDS011;40172;53.022;7.012;2022-07-29T08:46:10;4.97;;;1.83;;
54259;SDS011;40172;53.022;7.012;2022-07-29T08:48:35;4.13;;;2.22;;
54259;SDS011;40172;53.022;7.012;2022-07-29T08:51:01;6.20;;;2.47;;
54259;SDS011;40172;53.022;7.012;2022-07-29T08:53:27;5.63;;;2.20;;
54259;SDS011;40172;53.022;7.012;2022-07-29T08:55:54;6.85;;;2.55;;
54259;SDS011;40172;53.022;7.012;2022-07-29T08:58:20;10.63;;;2.53;;
54259;SDS011;40172;53.022;7.012;2022-07-29T09:00:50;9.73;;;2.70;;
54259;SDS011;40172;53.022;7.012;2022-07-29T09:03:20;7.95;;;2.35;;
54259;SDS011;40172;53.022;7.012;2022-07-29T09:05:48;5.88;;;2.10;;
54259;SDS011;40172;53.022;7.012;2022-07-29T09:08:15;6.50;;;2.35;;
54259;SDS011;40172;53.022;7.012;2022-07-29T09:10:42;7.50;;;2.20;;
54259;SDS011;40172;53.022;7.012;2022-07-29T09:13:09;4.95;;;2.10;;
54259;SDS011;40172;53.022;7.012;2022-07-29T09:15:34;6.60;;;2.30;;
54259;SDS011;40172;53.022;7.012;2022-07-29T09:18:00;7.15;;;2.40;;
54259;SDS011;40172;53.022;7.012;2022-07-29T09:20:27;7.00;;;2.20;;
54259;SDS011;40172;53.022;7.012;2022-07-29T09:23:12;6.18;;;2.20;;
54259;SDS011;40172;53.022;7.012;2022-07-29T09:25:39;6.60;;;2.25;;
54259;SDS011;40172;53.022;7.012;2022-07-29T09:28:06;9.57;;;2.33;;
54259;SDS011;40172;53.022;7.012;2022-07-29T09:30:32;7.70;;;2.00;;
54259;SDS011;40172;53.022;7.012;2022-07-29T09:32:59;4.65;;;2.38;;
54259;SDS011;40172;53.022;7.012;2022-07-29T09:35:28;8.95;;;2.30;;
54259;SDS011;40172;53.022;7.012;2022-07-29T09:37:55;5.18;;;1.98;;
54259;SDS011;40172;53.022;7.012;2022-07-29T09:40:22;5.85;;;2.50;;
54259;SDS011;40172;53.022;7.012;2022-07-29T09:42:50;8.63;;;2.38;;
54259;SDS011;40172;53.022;7.012;2022-07-29T09:45:32;5.65;;;2.10;;
54259;SDS011;40172;53.022;7.012;2022-07-29T09:47:59;9.13;;;2.20;;
54259;SDS011;40172;53.022;7.012;2022-07-29T09:50:38;7.95;;;2.20;;
54259;SDS011;40172;53.022;7.012;2022-07-29T09:53:05;9.82;;;2.53;;
54259;SDS011;40172;53.022;7.012;2022-07-29T09:55:31;5.10;;;2.15;;
54259;SDS011;40172;53.022;7.012;2022-07-29T09:58:14;4.85;;;1.95;;
54259;SDS011;40172;53.022;7.012;2022-07-29T10:00:41;7.32;;;2.50;;
54259;SDS011;40172;53.022;7.012;2022-07-29T10:03:07;6.25;;;2.20;;
54259;SDS011;40172;53.022;7.012;2022-07-29T10:05:33;8.68;;;2.20;;
54259;SDS011;40172;53.022;7.012;2022-07-29T10:07:59;7.00;;;2.30;;
54259;SDS011;40172;53.022;7.012;2022-07-29T10:10:32;9.43;;;2.40;;
54259;SDS011;40172;53.022;7.012;2022-07-29T10:13:01;7.57;;;2.15;;
54259;SDS011;40172;53.022;7.012;2022-07-29T10:15:45;6.53;;;2.30;;
54259;SDS011;40172;53.022;7.012;2022-07-29T10:18:11;5.85;;;1.88;;
54259;SDS011;40172;53.022;7.012;2022-07-29T10:20:38;11.02;;;2.40;;
54259;SDS011;40172;53.022;7.012;2022-07-29T10:23:04;6.18;;;2.17;;
54259;SDS011;40172;53.022;7.012;2022-07-29T10:25:30;5.07;;;2.20;;
54259;SDS011;40172;53.022;7.012;2022-07-29T10:27:56;5.97;;;2.78;;
54259;SDS011;40172;53.022;7.012;2022-07-29T10:30:24;4.88;;;2.65;;
54259;SDS011;40172;53.022;7.012;2022-07-29T10:32:54;7.10;;;2.10;;
54259;SDS011;40172;53.022;7.012;2022-07-29T10:44:23;6.53;;;2.30;;
54259;SDS011;40172;53.022;7.012;2022-07-29T10:46:50;7.72;;;2.05;;
54259;SDS011;40172;53.022;7.012;2022-07-29T10:49:20;4.18;;;2.08;;
54259;SDS011;40172;53.022;7.012;2022-07-29T10:59:48;7.00;;;2.40;;
54259;SDS011;40172;53.022;7.012;2022-07-29T11:05:04;10.88;;;2.65;;
54259;SDS011;40172;53.022;7.012;2022-07-29T11:07:31;7.55;;;2.72;;
54259;SDS011;40172;53.022;7.012;2022-07-29T11:15:16;6.18;;;2.55;;
54259;SDS011;40172;53.022;7.012;2022-07-29T11:31:19;8.13;;;2.28;;
54259;SDS011;40172;53.022;7.012;2022-07-29T11:39:35;8.75;;;2.90;;
54259;SDS011;40172;53.022;7.012;2022-07-29T11:44:59;7.88;;;2.60;;
54259;SDS011;40172;53.022;7.012;2022-07-29T11:47:26;6.45;;;2.25;;
54259;SDS011;40172;53.022;7.012;2022-07-29T11:49:54;8.13;;;2.33;;
54259;SDS011;40172;53.022;7.012;2022-07-29T11:52:22;6.10;;;2.65;;
54259;SDS011;40172;53.022;7.012;2022-07-29T11:54:49;5.47;;;2.42;;
54259;SDS011;40172;53.022;7.012;2022-07-29T11:57:19;6.25;;;2.60;;
54259;SDS011;40172;53.022;7.012;2022-07-29T11:59:46;8.05;;;2.97;;
54259;SDS011;40172;53.022;7.012;2022-07-29T12:02:12;8.18;;;2.78;;
54259;SDS011;40172;53.022;7.012;2022-07-29T12:04:51;11.82;;;2.90;;
54259;SDS011;40172;53.022;7.012;2022-07-29T12:07:19;5.25;;;2.97;;
54259;SDS011;40172;53.022;7.012;2022-07-29T12:09:53;13.25;;;2.92;;
54259;SDS011;40172;53.022;7.012;2022-07-29T12:12:19;5.85;;;2.80;;
54259;SDS011;40172;53.022;7.012;2022-07-29T12:14:45;7.03;;;3.00;;
54259;SDS011;40172;53.022;7.012;2022-07-29T12:19:58;8.75;;;3.00;;
54259;SDS011;40172;53.022;7.012;2022-07-29T12:22:45;8.48;;;2.88;;
54259;SDS011;40172;53.022;7.012;2022-07-29T12:25:13;7.57;;;2.92;;
54259;SDS011;40172;53.022;7.012;2022-07-29T12:27:41;10.68;;;3.03;;
54259;SDS011;40172;53.022;7.012;2022-07-29T12:30:09;6.88;;;3.47;;
54259;SDS011;40172;53.022;7.012;2022-07-29T12:32:37;18.70;;;4.00;;
54259;SDS011;40172;53.022;7.012;2022-07-29T12:35:05;16.02;;;4.20;;
54259;SDS011;40172;53.022;7.012;2022-07-29T12:37:34;10.52;;;3.17;;
54259;SDS011;40172;53.022;7.012;2022-07-29T12:40:00;19.70;;;6.18;;
54259;SDS011;40172;53.022;7.012;2022-07-29T12:42:27;7.95;;;3.22;;
54259;SDS011;40172;53.022;7.012;2022-07-29T12:44:53;9.38;;;3.60;;
54259;SDS011;40172;53.022;7.012;2022-07-29T12:47:19;11.80;;;4.30;;
54259;SDS011;40172;53.022;7.012;2022-07-29T12:49:45;7.55;;;2.83;;
54259;SDS011;40172;53.022;7.012;2022-07-29T12:54:49;7.95;;;2.80;;
54259;SDS011;40172;53.022;7.012;2022-07-29T12:57:15;9.45;;;2.78;;
54259;SDS011;40172;53.022;7.012;2022-07-29T12:59:40;12.27;;;2.90;;
54259;SDS011;40172;53.022;7.012;2022-07-29T13:02:06;6.80;;;2.60;;
54259;SDS011;40172;53.022;7.012;2022-07-29T13:04:54;8.68;;;3.00;;
54259;SDS011;40172;53.022;7.012;2022-07-29T13:07:29;6.88;;;2.65;;
54259;SDS011;40172;53.022;7.012;2022-07-29T13:10:16;8.30;;;2.80;;
54259;SDS011;40172;53.022;7.012;2022-07-29T13:18:30;8.30;;;2.83;;
54259;SDS011;40172;53.022;7.012;2022-07-29T13:21:12;6.18;;;2.90;;
54259;SDS011;40172;53.022;7.012;2022-07-29T13:23:41;11.05;;;2.85;;
54259;SDS011;40172;53.022;7.012;2022-07-29T13:26:08;7.85;;;2.83;;
54259;SDS011;40172;53.022;7.012;2022-07-29T13:28:35;9.27;;;2.88;;
54259;SDS011;40172;53.022;7.012;2022-07-29T13:31:00;9.65;;;3.17;;
54259;SDS011;40172;53.022;7.012;2022-07-29T13:33:26;6.47;;;2.78;;
54259;SDS011;40172;53.022;7.012;2022-07-29T13:35:52;8.63;;;2.70;;
54259;SDS011;40172;53.022;7.012;2022-07-29T13:38:17;9.68;;;3.13;;
54259;SDS011;40172;53.022;7.012;2022-07-29T13:40:43;5.80;;;2.60;;
54259;SDS011;40172;53.022;7.012;2022-07-29T13:43:09;7.85;;;2.70;;
54259;SDS011;40172;53.022;7.012;2022-07-29T13:45:35;6.32;;;2.55;;
54259;SDS011;40172;53.022;7.012;2022-07-29T13:48:01;8.75;;;2.70;;
54259;SDS011;40172;53.022;7.012;2022-07-29T13:50:26;11.40;;;2.53;;
54259;SDS011;40172;53.022;7.012;2022-07-29T13:52:52;6.28;;;2.75;;
54259;SDS011;40172;53.022;7.012;2022-07-29T13:55:18;6.85;;;2.55;;
54259;SDS011;40172;53.022;7.012;2022-07-29T13:57:44;8.63;;;2.50;;
54259;SDS011;40172;53.022;7.012;2022-07-29T14:00:10;9.48;;;2.53;;
54259;SDS011;40172;53.022;7.012;2022-07-29T14:02:36;9.02;;;2.72;;
54259;SDS011;40172;53.022;7.012;2022-07-29T14:05:03;7.85;;;2.65;;
54259;SDS011;40172;53.022;7.012;2022-07-29T14:07:30;9.13;;;2.30;;
54259;SDS011;40172;53.022;7.012;2022-07-29T14:09:55;8.95;;;2.35;;
54259;SDS011;40172;53.022;7.012;2022-07-29T14:12:21;8.35;;;2.50;;
54259;SDS011;40172;53.022;7.012;2022-07-29T14:14:47;7.72;;;2.22;;
54259;SDS011;40172;53.022;7.012;2022-07-29T14:17:14;7.10;;;2.15;;
54259;SDS011;40172;53.022;7.012;2022-07-29T14:19:40;6.10;;;2.50;;
54259;SDS011;40172;53.022;7.012;2022-07-29T14:22:06;7.25;;;2.17;;
54259;SDS011;40172;53.022;7.012;2022-07-29T14:24:33;9.63;;;2.47;;
54259;SDS011;40172;53.022;7.012;2022-07-29T14:26:59;6.40;;;2.65;;
54259;SDS011;40172;53.022;7.012;2022-07-29T14:29:24;5.22;;;2.20;;
54259;SDS011;40172;53.022;7.012;2022-07-29T14:31:50;8.65;;;2.40;;
54259;SDS011;40172;53.022;7.012;2022-07-29T14:34:16;8.15;;;2.50;;
54259;SDS011;40172;53.022;7.012;2022-07-29T14:36:41;6.38;;;2.25;;
54259;SDS011;40172;53.022;7.012;2022-07-29T14:39:07;11.13;;;2.60;;
54259;SDS011;40172;53.022;7.012;2022-07-29T14:41:33;8.73;;;2.88;;
54259;SDS011;40172;53.022;7.012;2022-07-29T14:43:58;11.18;;;2.90;;
54259;SDS011;40172;53.022;7.012;2022-07-29T14:46:26;8.70;;;2.50;;
54259;SDS011;40172;53.022;7.012;2022-07-29T14:48:52;7.80;;;2.88;;
54259;SDS011;40172;53.022;7.012;2022-07-29T14:51:18;13.00;;;2.63;;
54259;SDS011;40172;53.022;7.012;2022-07-29T14:53:43;6.90;;;2.53;;
54259;SDS011;40172;53.022;7.012;2022-07-29T14:56:09;8.48;;;2.40;;
54259;SDS011;40172;53.022;7.012;2022-07-29T14:58:34;9.60;;;2.63;;
54259;SDS011;40172;53.022;7.012;2022-07-29T15:01:00;9.80;;;2.53;;
54259;SDS011;40172;53.022;7.012;2022-07-29T15:03:26;8.27;;;2.50;;
54259;SDS011;40172;53.022;7.012;2022-07-29T15:05:55;13.23;;;2.70;;
54259;SDS011;40172;53.022;7.012;2022-07-29T15:08:21;9.82;;;2.47;;
54259;SDS011;40172;53.022;7.012;2022-07-29T15:10:46;5.60;;;2.17;;
54259;SDS011;40172;53.022;7.012;2022-07-29T15:13:12;7.30;;;2.30;;
54259;SDS011;40172;53.022;7.012;2022-07-29T15:15:38;5.63;;;2.13;;
54259;SDS011;40172;53.022;7.012;2022-07-29T15:18:03;6.40;;;2.20;;
54259;SDS011;40172;53.022;7.012;2022-07-29T15:20:29;5.95;;;1.95;;
54259;SDS011;40172;53.022;7.012;2022-07-29T15:22:55;3.88;;;1.70;;
54259;SDS011;40172;53.022;7.012;2022-07-29T15:25:22;8.13;;;2.15;;
54259;SDS011;40172;53.022;7.012;2022-07-29T15:27:48;5.82;;;2.10;;
54259;SDS011;40172;53.022;7.012;2022-07-29T15:30:14;6.95;;;2.13;;
54259;SDS011;40172;53.022;7.012;2022-07-29T15:32:42;4.55;;;2.03;;
54259;SDS011;40172;53.022;7.012;2022-07-29T15:35:08;5.20;;;2.03;;
54259;SDS011;40172;53.022;7.012;2022-07-29T15:37:35;26.10;;;2.50;;
54259;SDS011;40172;53.022;7.012;2022-07-29T15:40:05;7.78;;;1.90;;
54259;SDS011;40172;53.022;7.012;2022-07-29T15:42:31;7.18;;;2.00;;
54259;SDS011;40172;53.022;7.012;2022-07-29T15:44:57;7.43;;;2.15;;
54259;SDS011;40172;53.022;7.012;2022-07-29T15:47:27;6.85;;;1.90;;
54259;SDS011;40172;53.022;7.012;2022-07-29T15:49:53;6.60;;;2.03;;
54259;SDS011;40172;53.022;7.012;2022-07-29T15:52:19;7.82;;;1.98;;
54259;SDS011;40172;53.022;7.012;2022-07-29T15:54:45;5.88;;;1.77;;
54259;SDS011;40172;53.022;7.012;2022-07-29T15:57:11;8.35;;;2.38;;
54259;SDS011;40172;53.022;7.012;2022-07-29T15:59:37;11.20;;;2.45;;
54259;SDS011;40172;53.022;7.012;2022-07-29T16:02:02;12.40;;;2.20;;
54259;SDS011;40172;53.022;7.012;2022-07-29T16:04:28;6.28;;;1.70;;